KAPC/APC METAR and TAF weather

Enter ICAO airport designator
Station Type Date Time Source
KAPC METAR 2022/07/01 01:54 UTC NOAA

KAPC 010154Z 20017KT 10SM CLR 18/12 A2997 RMK AO2 SLP138 T01780122


Station Type Date Time Source
KAPC Decoded METAR 2022/07/01 01:54 UTC NOAA

NAPA COUNTY AIRPORT, CA, United States (KAPC) 38-12N 122-17W 13M
Jun 30, 2022 - 09:54 PM EDT / 2022.07.01 0154 UTC
Wind: from the SSW (200 degrees) at 20 MPH (17 KT):0
Visibility: 10 mile(s):0
Sky conditions: clear
Temperature: 64.0 F (17.8 C)
Dew Point: 54.0 F (12.2 C)
Relative Humidity: 69%
Pressure (altimeter): 29.97 in. Hg (1014 hPa)
ob: KAPC 010154Z 20017KT 10SM CLR 18/12 A2997 RMK AO2 SLP138 T01780122
cycle: 2

Station Type Date Time Source
KAPC TAF 2022/06/30 18:33 UTC NOAA

TAF KAPC 301730Z 3018/0118 20012KT P6SM BKN011
FM302100 23014KT P6SM SKC
FM010500 22008KT P6SM FEW009
FM010900 22005KT P6SM BKN009
FM011700 22010KT P6SM SCT009

Example: see airport list